Scroll down
FLIGHT INFORMATION
United Airlines

UAL1165

At Arrival Gate

KLAX
 KEWR
DATE: 2021-02-28
GATE: 
GATE DEPARTURE: 19:10
TAKEOFF: 19:22
DATE: 2021-02-28
GATE: 26
LANDING: 23:45
GATE ARRIVAL: 23:56
FLIGHT DATA
Crew: 
Speed: 
488 kts
Altitude: 
39,027 ft
Stage Length: 
2,128.0 nm
Block Time: 
4.8 hrs
Flight Time: 
4.4 hrs
Fuel Used: 
58,188 lb
Cleared Route: KLAX DOCKR KLIPR KEGGS COOPP ORCKA NNAVY BLAZN LAS BEALE NOOTN BETHL FREDD DICEE DVC HLC KP60C KP63E OTM KG69K VOGLR KC72Q KEEHO DORET ZORBO SLT FQM MEGSS HAYED RACKI PENNS SWEET KILMA RW04R
TRACK DATA
50,000 ft 1,000 kts
AIRCRAFT INFO AND CUMULATIVE STATS
Aircraft Type: 
B772
Registration: 
SELCAL: 
ASCK
MSN/LN: 
26934 / 96
Operator: 
Total Flights: 
5
Total Block Time: 
26.7 hrs
Total Flight Time: 
25.3 hrs
Total Fuel Used: 
349,553 lb
DATALINK LOG | Newest first | Current as of: 2022-09-25 16:56:43
LABEL SEQUENCE CONTENT Dn/Up
5Z01081 MAR 21 00:00:33z / FLT DECK GOOD / ACF POS GOOD / GRND SERVICES GOOD / MAINT GOOD▼ Dn
QD570423:56 19.5▼ Dn
QC455423:45▼ Dn
2U3826KEWR 282323Z 10006KT 3SM -RA BR BKN007 BKN017 OVC048 06/04 A3005 RMK AO2 PRESFR P0000 T00560044▲ Up
2S3948KEWR▼ Dn
2U3126KEWR 282301Z 08006KT 4SM -RA BR FEW007 BKN018 OVC049 06/04 A3008 RMK AO2 P0000 T00560039▲ Up
2S3243KEWR▼ Dn
GA3252GATE 26▲ Up
GR3241KEWR 23:43 MAAS 02 YP/UM 00/00 WCHR/S/C 05/01/00 HI-VAL NO DIPL/VIP NO▼ Dn
2U5816KEWR 282236Z 09006KT 6SM -RA BR FEW008 BKN050 OVC065 06/04 A3010 RMK AO2 P0001 T00560039▲ Up
2S5913KEWR▼ Dn
UM204123CLEARED TO FL 390▲ Up
DM64112REQUEST FL 390 DUE TO A/C PERF▼ Dn
UM0 UM193417UNABLE. MAINTAIN ASSIGNED ALTITUDE▲ Up
DM63406REQUEST FL 390 DUE TO A/C PERF▼ Dn
QB235619:22▼ Dn
QA104319:10 77.7▼ Dn
2U5942KLAX 281753Z 11003KT 10SM BKN300 17/M02 A3016 RMK AO2 SLP213 T01721022 10172 20089 50017▲ Up
2S5934KLAX▼ Dn
A35541CLEARED TO KEWR VIA ORCKA5 LAS J146 DVC HLC KP60C KP63E OTM KG69K VOGLR KC72Q KEEHO J584 SLT FQM3. SQUAWK 5524.▲ Up
Q05329[LINK ACK]▲ Up
Q05328[LINK TEST]▼ Dn


AIRCRAFT HISTORY
FLIGHT DATE FLIGHT NO. ORIGIN DESTINATION CLEARED ROUTE BLOCK TIME FLIGHT TIME FUEL USED PILOT
2021-06-04UAL604KGPI SAEZ KGPI SKOTT LVM DDY LEWOY GCK REYOG DONIE SBI LAURL KLAMS KENGS KELPP KEHLI SUVUM LEVAT RORLA ITLOM IGTOB MUXOG AXEVU VIGTU VOBED CZM ITAKU SIGMA AMESI TEKUG SPP MORLI TBG MILAT TOKUT TCO ENSOL NEGAL QIT VURIS PAV KABAG VUKOK KOTKU PUGUP PUL ERINI NILSA ANKUG TOMIX JUL VURUS ESDUM DEVUR GEKOR BOGUB UNI AKVAG UBSAS USTOT NAXET JUJ ASODO VADUN GAVEX ESPER DADMI ERE ROMUR ISOPO ROS MULTA SNT SAEZ12.4 hrs12.3 hrs167,479 lbAlex K.
2021-04-16UAL4620KPHX KGPI KPHX JINOL OSGUE ZIDOG OXYGN ZILUB QUAKY SNOBL GCN BCE DTA PIH MSO SKOTT RW022.4 hrs2.1 hrs30,893 lbPete L.
2021-03-15UAL315KRNO KPHX KRNO PESKE LIDAT BTY BLD PRFUM WOTRO KPHX1.7 hrs1.4 hrs20,450 lbCharles Harris
2021-03-10UAL3589KEWR KRNO KEWR BAGGA PORTT RIETA SBJ LANNA ETX ETG CXR WOOST UNBAR OBK DBQ FOD ONL BFF OCS BEARR LCU BAM LLC ANAHO WINRZ RW16R5.3 hrs5.1 hrs72,542 lbPete L.
2021-02-28UAL1165KLAX KEWR KLAX DOCKR KLIPR KEGGS COOPP ORCKA NNAVY BLAZN LAS BEALE NOOTN BETHL FREDD DICEE DVC HLC KP60C KP63E OTM KG69K VOGLR KC72Q KEEHO DORET ZORBO SLT FQM MEGSS HAYED RACKI PENNS SWEET KILMA RW04R4.8 hrs4.4 hrs58,188 lbJames W.